Flight Track Log - Related Links

Times and Time Zones

All times are in EDT time to prevent confusion due to time zone crossing. See the FFT532 flight status page for this flight to view local times or setup timezone preferences in your user account.

Time Position Orientation Groundspeed Altitude Reporting Facility
EDT Latitude Longitude Course Direction KTS MPH feet Rate Location/Type
Fri 09:26:23 AM 39.7833 -104.6167 142° Southeast 196 226 7,200  Level Denver TRACON
Fri 09:27:17 AM 39.7333 -104.5667 142° Southeast 249 287 8,200 1,543 Climbing Denver TRACON
Fri 09:28:08 AM 39.6808 -104.5192 145° Southeast 292 336 9,900 2,000 Climbing Denver Center
Fri 09:29:08 AM 39.6386 -104.4586 132° Southeast 311 358 11,900 1,869 Climbing Denver Center
Fri 09:30:10 AM 39.6728 -104.3178 72° East 345 397 13,700 2,098 Climbing Denver Center
Fri 09:31:11 AM 39.7164 -104.2003 64° Northeast 360 414 16,200 2,213 Climbing Denver Center
Fri 09:32:12 AM 39.7625 -104.0706 65° Northeast 368 423 18,200 1,820 Climbing Denver Center
Fri 09:33:13 AM 39.8072 -103.9439 65° Northeast 387 445 19,900 1,522 Climbing Denver Center
Fri 09:34:26 AM 39.8539 -103.8144 65° Northeast 395 455 21,600 1,511 Climbing Denver Center
Fri 09:35:28 AM 39.8928 -103.6439 73° East 404 465 23,300 1,561 Climbing Denver Center
Fri 09:36:29 AM 39.9111 -103.4944 81° East 419 482 24,800 1,426 Climbing Denver Center
Fri 09:37:30 AM 39.9286 -103.3397 82° East 430 495 26,200 1,279 Climbing Denver Center
Fri 09:38:31 AM 39.9461 -103.1803 82° East 442 509 27,400 1,180 Climbing Denver Center
Fri 09:39:32 AM 39.9617 -103.0178 83° East 451 519 28,600 1,180 Climbing Denver Center
Fri 09:40:33 AM 39.9711 -102.8522 86° East 458 527 29,800 1,122 Climbing Denver Center
Fri 09:41:35 AM 39.9825 -102.6819 85° East 464 534 30,900 1,220 Climbing Denver Center
Fri 09:42:36 AM 39.9936 -102.4931 86° East 468 539 32,300 1,180 Climbing Denver Center
Fri 09:43:37 AM 40.0031 -102.3317 86° East 467 537 33,300 1,180 Climbing Denver Center
Fri 09:44:38 AM 40.0144 -102.1444 85° East 466 536 34,700 1,111 Climbing Denver Center
Fri 09:45:52 AM 40.0233 -101.9833 86° East 467 537 35,800 1,067 Climbing Denver Center
Fri 09:46:53 AM 40.0358 -101.7728 85° East 459 528 37,100 976 Climbing Denver Center
Fri 09:47:55 AM 40.0544 -101.6161 81° East 458 527 37,800 683 Climbing Denver Center
Fri 09:48:56 AM 40.0725 -101.4322 83° East 459 528 38,500 590 Climbing Denver Center
Fri 09:49:57 AM 40.0892 -101.2775 82° East 454 522 39,000 244 Climbing Denver Center
Fri 09:50:59 AM 40.1039 -101.1206 83° East 457 526 39,000  Level Denver Center
Fri 09:52:00 AM 40.1225 -100.9392 82° East 454 522 39,000  Level Denver Center
Fri 09:53:01 AM 40.1375 -100.7850 83° East 450 518 39,000  Level Denver Center
Fri 09:54:03 AM 40.1542 -100.6069 83° East 445 512 39,000  Level Denver Center
Fri 09:55:04 AM 40.1686 -100.4550 83° East 442 509 39,000  Level Denver Center
Fri 09:56:06 AM 40.1853 -100.2781 83° East 440 506 39,000  Level Denver Center
Fri 09:57:07 AM 40.1997 -100.1242 83° East 444 511 39,000 49 Level Denver Center
Fri 09:58:08 AM 40.2133 -99.9694 83° East 447 514 39,100 49 Climbing Denver Center
Fri 09:59:10 AM 40.2297 -99.7919 83° East 445 512 39,100 -48 Level Denver Center
Fri 10:00:13 AM 40.2433 -99.6333 84° East 442 509 39,000 -48 Descending Denver Center
Fri 10:01:15 AM 40.2575 -99.4736 83° East 442 509 39,000  Level Denver Center
Fri 10:02:16 AM 40.2711 -99.3156 84° East 440 506 39,000  Level Denver Center
Fri 10:03:18 AM 40.2836 -99.1575 84° East 438 504 39,000  Level Denver Center
Fri 10:04:08 AM 40.2978 -98.9992 83° East 442 509 39,000  Level Minneapolis Center
Fri 10:05:10 AM 40.3097 -98.8403 84° East 441 507 39,000  Level Minneapolis Center
Fri 10:06:12 AM 40.3214 -98.6806 84° East 442 509 39,000  Level Minneapolis Center
Fri 10:07:14 AM 40.3339 -98.5219 84° East 441 507 39,000  Level Minneapolis Center
Fri 10:08:16 AM 40.3467 -98.3617 84° East 443 510 39,000  Level Minneapolis Center
Fri 10:09:18 AM 40.3614 -98.1700 84° East 442 509 39,000  Level Minneapolis Center
Fri 10:10:20 AM 40.3728 -98.0083 85° East 445 512 39,000  Level Minneapolis Center
Fri 10:11:22 AM 40.3844 -97.8483 84° East 444 511 39,000  Level Minneapolis Center
Fri 10:12:24 AM 40.3958 -97.6897 85° East 441 507 39,000  Level Minneapolis Center
Fri 10:13:26 AM 40.4067 -97.5297 85° East 441 507 39,000  Level Minneapolis Center
Fri 10:14:27 AM 40.4181 -97.3703 85° East 440 506 39,000  Level Minneapolis Center
Fri 10:15:29 AM 40.4300 -97.1822 85° East 441 507 39,000 48 Level Minneapolis Center
Fri 10:16:31 AM 40.4400 -97.0206 85° East 445 512 39,100  Climbing Minneapolis Center
Fri 10:17:33 AM 40.4500 -96.8600 85° East 444 511 39,000 -48 Descending Minneapolis Center
Fri 10:18:35 AM 40.4606 -96.7006 85° East 442 509 39,000  Level Minneapolis Center
Fri 10:19:37 AM 40.4706 -96.5406 85° East 442 509 39,000  Level Minneapolis Center
Fri 10:20:39 AM 40.4800 -96.3806 86° East 440 506 39,000  Level Minneapolis Center
Fri 10:21:41 AM 40.4908 -96.1894 86° East 441 507 39,000  Level Minneapolis Center
Fri 10:22:43 AM 40.5003 -96.0306 85° East 440 506 39,000  Level Minneapolis Center
Fri 10:23:45 AM 40.5086 -95.8689 86° East 445 512 39,000  Level Minneapolis Center
Fri 10:24:47 AM 40.5167 -95.7083 86° East 445 512 39,000  Level Minneapolis Center
Fri 10:25:49 AM 40.5253 -95.5475 86° East 442 509 39,000  Level Minneapolis Center
Fri 10:26:51 AM 40.5367 -95.3561 85° East 442 509 39,000  Level Minneapolis Center
Fri 10:27:53 AM 40.5436 -95.1958 87° East 440 506 39,000  Level Minneapolis Center
Fri 10:28:56 AM 40.5528 -95.0369 86° East 439 505 39,000  Level Minneapolis Center
Fri 10:29:58 AM 40.5589 -94.8800 87° East 435 501 39,000  Level Minneapolis Center
Fri 10:31:00 AM 40.5658 -94.7217 87° East 435 501 39,000  Level Minneapolis Center
Fri 10:32:02 AM 40.5756 -94.5428 86° East 435 501 39,000  Level Minneapolis Center
Fri 10:33:04 AM 40.5797 -94.3861 88° East 434 499 39,000  Level Minneapolis Center
Fri 10:34:18 AM 40.5864 -94.2303 87° East 432 497 39,000  Level Minneapolis Center
Fri 10:35:20 AM 40.5928 -94.0428 87° East 432 497 39,000  Level Minneapolis Center
Fri 10:36:22 AM 40.6067 -93.8900 83° East 426 490 39,000  Level Minneapolis Center
Fri 10:37:24 AM 40.6339 -93.7111 79° East 420 483 39,000  Level Minneapolis Center
Fri 10:37:58 AM 40.6481 -93.6192 78° East 421 484 39,000  Level Chicago Center
Fri 10:39:00 AM 40.6694 -93.4692 79° East 420 483 39,000  Level Chicago Center
Fri 10:40:02 AM 40.6914 -93.3181 79° East 421 484 39,000 -387 Level Chicago Center
Fri 10:41:04 AM 40.7131 -93.1681 79° East 419 482 38,200 -1,200 Descending Chicago Center
Fri 10:42:07 AM 40.7350 -93.0167 79° East 422 486 36,500 -1,920 Descending Chicago Center
Fri 10:43:09 AM 40.7561 -92.8631 80° East 427 491 34,200 -1,935 Descending Chicago Center
Fri 10:44:11 AM 40.7811 -92.6822 80° East 420 483 32,500 -1,548 Descending Chicago Center
Fri 10:45:13 AM 40.8003 -92.5344 80° East 411 473 31,000 -726 Descending Chicago Center
Fri 10:46:15 AM 40.8194 -92.3933 80° East 395 455 31,000  Level Chicago Center
Fri 10:47:17 AM 40.8392 -92.2503 80° East 396 456 31,000  Level Chicago Center
Fri 10:48:19 AM 40.8583 -92.1067 80° East 398 458 31,000  Level Chicago Center
Fri 10:49:21 AM 40.8758 -91.9631 81° East 398 458 31,000  Level Chicago Center
Fri 10:50:23 AM 40.8986 -91.7919 80° East 398 458 31,000  Level Chicago Center
Fri 10:51:25 AM 40.9175 -91.6514 80° East 394 453 31,000  Level Chicago Center
Fri 10:52:27 AM 40.9356 -91.5086 80° East 396 456 31,000 -194 Level Chicago Center
Fri 10:53:29 AM 40.9531 -91.3683 81° East 391 450 30,600 -774 Descending Chicago Center
Fri 10:54:31 AM 40.9725 -91.2108 81° East 386 444 29,400 -1,008 Descending Chicago Center
Fri 10:55:34 AM 40.9889 -91.0722 81° East 383 441 28,500 -912 Descending Chicago Center
Fri 10:56:36 AM 41.0056 -90.9358 81° East 377 434 27,500 -1,306 Descending Chicago Center
Fri 10:57:38 AM 41.0222 -90.7983 81° East 377 434 25,800 -1,790 Descending Chicago Center
Fri 10:58:40 AM 41.0381 -90.6619 81° East 375 432 23,800 -1,645 Descending Chicago Center
Fri 10:59:42 AM 41.0581 -90.4978 81° East 375 432 22,400 -1,210 Descending Chicago Center
Fri 11:00:44 AM 41.0733 -90.3633 81° East 370 426 21,300 -1,065 Descending Chicago Center
Fri 11:01:46 AM 41.0892 -90.2314 81° East 365 420 20,200 -1,065 Descending Chicago Center
Fri 11:02:48 AM 41.1039 -90.0994 82° East 361 415 19,100 -1,065 Descending Chicago Center
Fri 11:03:50 AM 41.1181 -89.9678 82° East 360 414 18,000 -968 Descending Chicago Center
Fri 11:04:52 AM 41.1328 -89.8378 81° East 355 409 17,100 -968 Descending Chicago Center
Fri 11:05:54 AM 41.1472 -89.7097 81° East 349 402 16,000 -1,210 Descending Chicago Center
Fri 11:06:56 AM 41.1614 -89.5831 82° East 346 398 14,600 -2,129 Descending Chicago Center
Fri 11:07:58 AM 41.1967 -89.4319 73° East 367 422 11,600 -1,742 Descending Chicago Center
Fri 11:09:00 AM 41.2364 -89.3031 68° East 376 433 11,000 -290 Descending Chicago Center
Fri 11:10:02 AM 41.2769 -89.1794 66° East 368 423 11,000  Level Chicago Center
Fri 11:11:04 AM 41.3169 -89.0519 67° East 373 429 11,000 -145 Level Chicago Center
Fri 11:12:06 AM 41.3600 -88.9322 64° Northeast 364 419 10,700 -484 Descending Chicago Center
Fri 11:13:08 AM 41.3919 -88.8219 69° East 333 383 10,000 -774 Descending Chicago Center
Fri 11:14:10 AM 41.4214 -88.7244 68° East 297 342 9,100 -1,065 Descending Chicago Center
Fri 11:15:12 AM 41.4553 -88.6072 69° East 284 327 7,800 -871 Descending Chicago Center
Fri 11:16:14 AM 41.4750 -88.5086 75° East 277 319 7,300 -484 Descending Chicago Center
Fri 11:17:16 AM 41.4944 -88.4097 75° East 275 316 6,800 -484 Descending Chicago Center
Fri 11:18:18 AM 41.5144 -88.3125 75° East 274 315 6,300 -484 Descending Chicago Center
Fri 11:19:20 AM 41.5353 -88.2206 73° East 267 307 5,800 -484 Descending Chicago Center
Fri 11:20:22 AM 41.5553 -88.1272 74° East 264 304 5,300 -387 Descending Chicago Center
Fri 11:21:24 AM 41.5644 -88.0167 84° East 255 293 5,000 -417 Descending Chicago Center
Fri 11:23:00 AM 41.6679 -87.9531 25° Northeast  Level FlightAware Approximate
Fri 11:23:58 AM 41.5833 -87.7667 25° Northeast 255 293 3,800  Level Chicago TRACON
Fri 11:24:58 AM 41.6000 -87.7000 71° East 239 275 3,000 -400 Descending Chicago TRACON
Fri 11:25:58 AM 41.6500 -87.6500 37° Northeast 226 260 3,000 -431 Level Chicago TRACON
Fri 11:27:00 AM 41.7493 -87.7247 331° Northwest  Level Estimated
Fri 11:27:59 AM 41.7500 -87.7000 331° Northwest 173 199 1,700  Level Chicago TRACON
Fri 11:29:00 AM 41.7833 -87.7500 51° Northeast  Level FlightAware Approximate
Fri 11:36:00 AM 41.7860 -87.7524 51° Northeast  Level Estimated
Fri 11:37:00 AM 41.7833 -87.7500 51° Northeast  Level FlightAware Approximate

Login

Don't have an account? Register now (free) for customized features, flight alerts, and more!